Time;durP1;ratioP1;P1;durP2;ratioP2;P2;SDS_P1;SDS_P2;PMS_P1;PMS_P2;Temp;Humidity;BMP_temperature;BMP_pressure;BME280_temperature;BME280_humidity;BME280_pressure;Samples;Min_cycle;Max_cycle;Signal;HPM_P1;HPM_P2
2023/06/16 00:01:46;;;;;;;9.27;5.97;;;18.10;99.90;;;17.82;60.60;101099.09;5053143;28;20218;-74
2023/06/16 00:04:18;;;;;;;7.17;5.93;;;18.00;99.90;;;17.76;60.47;101100.72;5053027;28;20650;-74
2023/06/16 00:06:50;;;;;;;7.50;6.37;;;17.90;99.90;;;17.79;60.80;101102.19;5052795;28;20194;-74
2023/06/16 00:09:25;;;;;;;6.43;5.80;;;18.00;99.90;;;17.69;61.30;101106.09;5053213;28;20226;-73
2023/06/16 00:11:59;;;;;;;7.23;6.20;;;17.90;99.90;;;17.67;60.32;101101.94;5052863;28;20190;-74
2023/06/16 00:14:32;;;;;;;8.37;6.17;;;17.90;99.90;;;17.66;60.61;101101.09;5052976;28;20187;-74
2023/06/16 00:17:05;;;;;;;9.43;6.10;;;18.00;99.90;;;17.60;60.43;101107.28;5052721;28;20694;-74
2023/06/16 00:19:39;;;;;;;7.83;6.40;;;17.80;99.90;;;17.63;60.59;101098.78;5052626;28;20648;-74
2023/06/16 00:22:11;;;;;;;6.43;5.83;;;17.90;99.90;;;17.56;61.21;101095.19;5052743;28;20229;-74
2023/06/16 00:24:43;;;;;;;13.10;6.43;;;17.70;99.90;;;17.51;60.60;101094.88;5052860;28;20210;-74
2023/06/16 00:27:17;;;;;;;6.97;6.23;;;17.70;99.90;;;17.48;60.44;101097.16;5052965;28;20236;-74
2023/06/16 00:29:48;;;;;;;10.60;6.23;;;17.70;99.90;;;17.39;61.16;101092.94;5052970;28;20277;-74
2023/06/16 00:32:21;;;;;;;6.60;5.97;;;17.70;99.90;;;17.38;60.64;101097.50;5052870;28;20322;-74
2023/06/16 00:34:53;;;;;;;7.27;6.00;;;17.60;99.90;;;17.43;60.37;101100.44;5053465;28;20273;-74
2023/06/16 00:37:25;;;;;;;6.80;6.03;;;17.70;99.90;;;17.38;60.74;101100.22;5052960;28;20248;-75
2023/06/16 00:39:57;;;;;;;6.37;5.77;;;17.60;99.90;;;17.39;60.46;101096.47;5052783;28;20277;-74
2023/06/16 00:42:30;;;;;;;6.93;6.00;;;17.40;99.90;;;17.35;60.74;101103.31;5052706;28;20313;-74
2023/06/16 00:45:02;;;;;;;6.47;5.90;;;17.50;99.90;;;17.33;60.43;101094.53;5052684;28;20214;-74
2023/06/16 00:47:35;;;;;;;7.10;6.27;;;17.60;99.90;;;17.39;60.50;101101.03;5052658;28;20286;-74
2023/06/16 00:50:08;;;;;;;7.97;6.30;;;17.60;99.90;;;17.36;60.58;101104.16;5052712;28;20256;-74
2023/06/16 00:52:42;;;;;;;9.13;6.40;;;17.60;99.90;;;17.34;60.64;101100.78;5052254;28;20318;-74
2023/06/16 00:55:15;;;;;;;8.40;6.33;;;17.70;99.90;;;17.18;60.49;101091.09;5053121;28;20281;-74
2023/06/16 00:57:49;;;;;;;7.87;6.27;;;17.50;99.90;;;17.21;60.69;101093.41;5052309;28;20650;-74
2023/06/16 01:00:22;;;;;;;7.73;6.53;;;17.40;99.90;;;17.09;60.83;101092.22;5052662;28;20289;-73
2023/06/16 01:02:55;;;;;;;7.90;6.03;;;17.30;99.90;;;17.18;61.35;101099.19;5052171;28;20262;-75
2023/06/16 01:05:28;;;;;;;6.27;5.67;;;17.50;99.90;;;17.16;61.06;101093.97;5052576;28;20302;-74
2023/06/16 01:08:11;;;;;;;8.13;6.17;;;;;;;17.09;61.30;101097.63;5053193;28;20190;-74
2023/06/16 01:10:56;;;;;;;8.03;6.43;;;17.40;99.90;;;17.00;61.32;101088.00;5055729;28;20528;-74
2023/06/16 01:13:43;;;;;;;8.17;6.20;;;17.20;99.90;;;17.02;61.64;101089.47;5055987;28;20320;-74
2023/06/16 01:16:21;;;;;;;7.53;6.60;;;17.30;99.90;;;16.94;61.48;101095.03;5055688;28;20281;-74
2023/06/16 01:18:58;;;;;;;8.57;6.90;;;17.20;99.90;;;16.94;62.08;101083.38;5055618;28;20273;-74
2023/06/16 01:21:44;;;;;;;8.37;6.20;;;17.20;99.90;;;16.88;62.16;101094.97;5055840;28;20224;-74
2023/06/16 01:24:23;;;;;;;8.17;6.33;;;17.20;99.90;;;16.86;62.22;101088.88;5056333;28;20300;-74
2023/06/16 01:26:59;;;;;;;8.83;6.47;;;17.10;99.90;;;16.94;61.83;101097.72;5055476;28;20198;-74
2023/06/16 01:29:36;;;;;;;8.03;7.00;;;17.30;99.90;;;16.88;62.03;101090.41;5055816;28;20248;-74
2023/06/16 01:32:11;;;;;;;9.40;6.77;;;17.20;99.90;;;16.85;62.32;101095.34;5055700;28;20605;-74
2023/06/16 01:34:47;;;;;;;10.53;6.87;;;17.20;99.90;;;16.87;62.13;101099.53;5055713;28;20218;-73
2023/06/16 01:37:21;;;;;;;8.37;6.47;;;17.10;99.90;;;16.80;62.41;101095.91;5055253;28;20645;-74
2023/06/16 01:39:57;;;;;;;7.80;6.43;;;17.10;99.90;;;16.75;62.39;101095.63;5055130;28;20619;-74
2023/06/16 01:42:29;;;;;;;7.23;6.53;;;17.00;99.90;;;16.63;62.69;101092.63;5055050;28;20769;-74
2023/06/16 01:45:03;;;;;;;7.93;6.47;;;16.90;99.90;;;16.69;62.44;101097.25;5055331;28;20210;-74
2023/06/16 01:47:35;;;;;;;7.10;6.33;;;17.00;99.90;;;16.64;62.98;101101.56;5055352;28;20248;-74
2023/06/16 01:50:09;;;;;;;8.97;6.53;;;17.00;99.90;;;16.63;62.72;101095.31;5055410;28;20226;-73
2023/06/16 01:52:41;;;;;;;6.87;6.23;;;16.90;99.90;;;16.61;62.88;101089.25;5055228;28;20254;-73
2023/06/16 01:55:14;;;;;;;9.77;6.67;;;16.90;99.90;;;16.56;62.73;101089.00;5054926;28;20656;-73
2023/06/16 01:57:47;;;;;;;11.07;6.97;;;17.00;99.90;;;16.63;62.83;101081.81;5055168;28;20256;-74
2023/06/16 02:00:26;;;;;;;7.13;6.43;;;16.90;99.90;;;16.51;63.05;101083.28;5055142;28;20194;-74
2023/06/16 02:03:06;;;;;;;9.30;7.10;;;16.80;99.90;;;16.57;62.77;101073.63;5054974;28;20312;-74
2023/06/16 02:05:44;;;;;;;9.07;6.80;;;16.90;99.90;;;16.50;63.24;101076.22;5054965;28;20206;-74
2023/06/16 02:08:18;;;;;;;7.40;6.63;;;16.80;99.90;;;16.55;62.81;101078.34;5055058;28;20277;-74
2023/06/16 02:10:54;;;;;;;7.53;6.73;;;16.90;99.90;;;16.55;62.74;101076.50;5054640;28;20715;-74
2023/06/16 02:13:26;;;;;;;7.90;6.87;;;17.00;99.90;;;16.52;62.99;101073.31;5054529;28;20765;-74
2023/06/16 02:15:59;;;;;;;7.37;6.67;;;16.80;99.90;;;16.39;63.16;101082.13;5054867;28;20214;-73
2023/06/16 02:18:32;;;;;;;7.90;6.80;;;16.70;99.90;;;16.43;63.13;101080.72;5054178;28;20553;-73
2023/06/16 02:21:05;;;;;;;8.97;6.57;;;16.80;99.90;;;16.54;62.91;101087.50;5054428;28;20225;-75
2023/06/16 02:23:39;;;;;;;8.07;6.87;;;17.10;99.90;;;16.47;63.13;101081.97;5054187;28;20261;-74
2023/06/16 02:26:12;;;;;;;7.93;6.93;;;16.80;99.90;;;16.40;63.48;101085.66;5053832;28;20206;-74
2023/06/16 02:28:44;;;;;;;7.50;6.57;;;16.80;99.90;;;16.39;63.81;101084.81;5053770;28;20236;-74
2023/06/16 02:31:18;;;;;;;8.77;6.57;;;16.70;99.90;;;16.39;64.35;101090.22;5053569;28;20675;-74
2023/06/16 02:33:52;;;;;;;9.90;6.33;;;16.80;99.90;;;16.26;64.22;101089.22;5054514;28;20230;-74
2023/06/16 02:36:24;;;;;;;7.87;6.57;;;16.70;99.90;;;16.32;63.95;101078.50;5054265;28;20633;-75
2023/06/16 02:38:56;;;;;;;8.23;6.60;;;16.70;99.90;;;16.23;64.67;101075.03;5054437;28;20301;-75
2023/06/16 02:41:29;;;;;;;9.47;7.17;;;16.60;99.90;;;16.22;63.89;101088.75;5054217;28;20659;-75
2023/06/16 02:44:01;;;;;;;12.20;6.90;;;16.60;99.90;;;16.28;64.11;101090.69;5054246;28;20225;-75
2023/06/16 02:46:33;;;;;;;10.07;7.60;;;16.60;99.90;;;16.21;64.91;101096.03;5053974;28;20226;-74
2023/06/16 02:49:06;;;;;;;9.17;7.73;;;16.60;99.90;;;16.26;64.61;101094.63;5053979;28;20659;-74
2023/06/16 02:51:38;;;;;;;10.17;7.43;;;16.60;99.90;;;16.29;64.38;101097.78;5053801;28;20546;-74
2023/06/16 02:54:10;;;;;;;7.53;6.77;;;16.60;99.90;;;16.31;63.80;101087.63;5054092;28;20249;-74
2023/06/16 02:56:43;;;;;;;9.73;6.93;;;16.60;99.90;;;16.34;63.77;101089.94;5054066;28;20212;-74
2023/06/16 02:59:15;;;;;;;9.93;7.43;;;16.80;99.90;;;16.33;65.04;101088.28;5054010;28;20297;-74
2023/06/16 03:01:47;;;;;;;7.43;6.70;;;16.70;99.90;;;16.24;64.87;101092.09;5053887;28;20230;-74
2023/06/16 03:04:19;;;;;;;8.90;6.60;;;16.60;99.90;;;16.24;64.42;101090.25;5053830;28;20197;-75
2023/06/16 03:06:51;;;;;;;11.93;7.33;;;16.60;99.90;;;16.26;64.70;101090.06;5053847;28;20190;-74
2023/06/16 03:09:23;;;;;;;9.50;6.50;;;16.60;99.90;;;16.27;64.87;101093.59;5053863;28;20281;-74
2023/06/16 03:11:57;;;;;;;10.77;6.83;;;16.60;99.90;;;16.26;64.67;101089.22;5053400;28;20680;-74
2023/06/16 03:14:29;;;;;;;10.13;6.70;;;16.60;99.90;;;16.24;64.86;101097.50;5053892;28;20205;-74
2023/06/16 03:17:01;;;;;;;7.93;7.10;;;16.60;99.90;;;16.20;64.45;101096.19;5053669;28;20244;-75
2023/06/16 03:19:33;;;;;;;8.63;7.57;;;16.50;99.90;;;16.14;65.29;101096.97;5053677;28;20214;-75
2023/06/16 03:22:06;;;;;;;9.77;6.93;;;16.50;99.90;;;16.15;64.64;101104.03;5053659;28;20592;-75
2023/06/16 03:24:40;;;;;;;8.80;7.03;;;16.50;99.90;;;16.13;64.31;101100.72;5053569;28;20194;-73
2023/06/16 03:27:15;;;;;;;8.20;7.40;;;16.60;99.90;;;16.11;64.87;101097.34;5053209;28;20590;-75
2023/06/16 03:29:47;;;;;;;9.53;7.57;;;16.50;99.90;;;16.00;65.36;101095.09;5053494;28;20412;-75
2023/06/16 03:32:19;;;;;;;7.80;7.03;;;16.40;99.90;;;16.02;65.03;101095.78;5052744;28;20233;-75
2023/06/16 03:34:51;;;;;;;9.00;7.37;;;16.40;99.90;;;15.92;65.39;101098.75;5053357;28;20273;-74
2023/06/16 03:37:23;;;;;;;8.53;7.43;;;16.30;99.90;;;15.96;65.45;101099.22;5053297;28;20264;-75
2023/06/16 03:39:55;;;;;;;9.53;7.47;;;16.30;99.90;;;16.00;65.20;101103.19;5053342;28;20198;-74
2023/06/16 03:42:29;;;;;;;8.53;7.67;;;16.40;99.90;;;16.01;65.52;101103.03;5053066;28;20234;-73
2023/06/16 03:45:01;;;;;;;11.27;7.27;;;16.50;99.90;;;16.02;65.24;101103.88;5053149;28;20220;-73
2023/06/16 03:47:33;;;;;;;9.13;7.30;;;16.50;99.90;;;15.89;65.71;101095.59;5052959;28;20687;-74
2023/06/16 03:50:05;;;;;;;8.17;7.37;;;16.30;99.90;;;15.94;65.60;101096.69;5052948;28;20654;-74
2023/06/16 03:52:36;;;;;;;8.47;7.57;;;16.30;99.90;;;15.92;64.70;101093.34;5052794;28;20236;-74
2023/06/16 03:55:08;;;;;;;11.03;7.80;;;16.30;99.90;;;15.88;65.84;101099.31;5053703;28;20194;-74
2023/06/16 03:57:41;;;;;;;9.10;8.20;;;16.30;99.90;;;15.86;65.96;101104.03;5053260;28;20247;-74
2023/06/16 04:00:15;;;;;;;7.90;7.10;;;16.20;99.90;;;15.87;65.38;101097.63;5052814;28;20195;-74
2023/06/16 04:02:48;;;;;;;9.57;7.83;;;16.30;99.90;;;15.87;65.88;101109.25;5053537;28;20257;-75
2023/06/16 04:05:23;;;;;;;8.17;7.47;;;16.30;99.90;;;15.92;65.30;101097.91;5052962;28;20214;-74
2023/06/16 04:07:56;;;;;;;8.20;7.40;;;16.30;99.90;;;15.94;65.78;101110.19;5053017;28;20221;-74
2023/06/16 04:10:28;;;;;;;15.27;8.50;;;16.40;99.90;;;15.87;66.02;101103.03;5052713;28;20610;-74
2023/06/16 04:13:01;;;;;;;8.87;7.33;;;16.40;99.90;;;15.83;66.10;101107.09;5052862;28;20230;-74
2023/06/16 04:15:33;;;;;;;9.83;7.73;;;16.30;99.90;;;15.83;66.27;101104.41;5052990;28;20202;-74
2023/06/16 04:18:05;;;;;;;10.13;7.87;;;16.30;99.90;;;15.85;65.54;101105.06;5053018;28;20277;-75
2023/06/16 04:20:37;;;;;;;9.80;8.00;;;16.30;99.90;;;15.84;66.19;101103.41;5052710;28;20280;-74
2023/06/16 04:23:09;;;;;;;8.23;7.40;;;16.30;99.90;;;15.84;66.19;101111.50;5052828;28;20264;-74
2023/06/16 04:25:42;;;;;;;8.83;7.07;;;16.30;99.90;;;15.80;66.12;101099.38;5052852;28;20214;-74
2023/06/16 04:28:16;;;;;;;11.40;8.20;;;16.30;99.90;;;15.85;65.92;101107.78;5052895;28;20198;-62
2023/06/16 04:30:49;;;;;;;10.33;7.17;;;16.30;99.90;;;15.90;66.31;101110.75;5052840;28;20278;-62
2023/06/16 04:33:22;;;;;;;8.60;7.27;;;16.30;99.90;;;15.92;67.44;101114.97;5053121;28;20244;-69
2023/06/16 04:35:55;;;;;;;9.27;7.03;;;16.40;99.90;;;15.91;67.46;101112.44;5053530;28;20190;-69
2023/06/16 04:38:27;;;;;;;8.70;7.03;;;16.30;99.90;;;15.87;67.42;101113.81;5053041;28;20598;-69
2023/06/16 04:40:59;;;;;;;10.10;7.37;;;16.30;99.90;;;15.89;68.21;101114.50;5052724;28;20221;-69
2023/06/16 04:43:32;;;;;;;7.23;6.50;;;16.30;99.90;;;15.88;67.23;101116.34;5055811;28;20257;-69
2023/06/16 04:46:04;;;;;;;8.47;7.17;;;16.30;99.90;;;15.73;69.17;101116.31;5056533;28;20297;-69
2023/06/16 04:48:37;;;;;;;11.30;7.20;;;16.20;99.90;;;15.71;69.25;101118.38;5056300;28;20294;-69
2023/06/16 04:51:09;;;;;;;9.67;7.20;;;16.20;99.90;;;15.62;71.10;101119.47;5056488;28;20613;-69
2023/06/16 04:53:43;;;;;;;8.40;7.50;;;16.10;99.90;;;15.67;70.15;101117.06;5056391;28;20593;-70
2023/06/16 04:56:15;;;;;;;10.43;7.80;;;16.20;99.90;;;15.63;70.47;101115.75;5056407;28;20249;-69
2023/06/16 04:58:48;;;;;;;9.97;7.77;;;16.10;99.90;;;15.66;69.84;101114.53;5056381;28;20603;-69
2023/06/16 05:01:20;;;;;;;9.30;7.73;;;16.10;99.90;;;15.71;69.60;101118.38;5056323;28;20194;-69
2023/06/16 05:03:52;;;;;;;9.80;7.53;;;16.20;99.90;;;15.71;69.17;101122.94;5056188;28;20233;-69
2023/06/16 05:06:24;;;;;;;11.27;8.10;;;16.20;99.90;;;15.75;68.18;101128.81;5056169;28;20214;-70
2023/06/16 05:08:56;;;;;;;9.53;7.90;;;16.30;99.90;;;15.72;69.40;101130.84;5056192;28;20277;-69
2023/06/16 05:11:28;;;;;;;9.73;7.70;;;16.20;99.90;;;15.76;70.28;101130.47;5056067;28;20311;-69
2023/06/16 05:14:03;;;;;;;11.13;8.23;;;16.20;99.90;;;15.77;69.21;101132.16;5055739;28;20312;-69
2023/06/16 05:16:35;;;;;;;11.93;8.07;;;16.20;99.90;;;15.77;68.58;101121.34;5056069;28;20269;-69
2023/06/16 05:19:10;;;;;;;9.87;7.77;;;16.20;99.90;;;15.74;69.10;101122.56;5055729;28;20186;-69
2023/06/16 05:21:42;;;;;;;10.13;7.80;;;16.20;99.90;;;15.80;69.25;101120.97;5055798;28;20190;-69
2023/06/16 05:24:14;;;;;;;10.40;8.40;;;16.20;99.90;;;15.82;68.55;101130.59;5055895;28;20218;-69
2023/06/16 05:26:45;;;;;;;8.87;7.13;;;16.30;99.90;;;15.85;68.78;101126.69;5056006;28;20222;-70
2023/06/16 05:29:18;;;;;;;10.27;7.60;;;16.30;99.90;;;15.82;68.93;101129.75;5055783;28;20270;-69
2023/06/16 05:31:51;;;;;;;9.50;8.40;;;16.30;99.90;;;15.72;69.34;101124.59;5055376;28;20241;-70
2023/06/16 05:34:23;;;;;;;9.57;8.20;;;16.10;99.90;;;15.75;69.59;101126.13;5055407;28;20534;-69
2023/06/16 05:36:54;;;;;;;10.93;7.83;;;16.20;99.90;;;15.80;69.09;101123.69;5055669;28;20277;-70
2023/06/16 05:39:26;;;;;;;10.40;7.90;;;16.20;99.90;;;15.84;68.91;101128.53;5055317;28;20190;-70
2023/06/16 05:41:58;;;;;;;17.57;9.47;;;16.30;99.90;;;15.72;68.73;101122.75;5055248;28;20233;-70
2023/06/16 05:44:31;;;;;;;15.40;8.57;;;16.30;99.90;;;15.83;68.91;101134.09;5055531;28;20226;-70
2023/06/16 05:47:03;;;;;;;17.03;9.00;;;16.30;99.90;;;15.80;68.52;101127.22;5055069;28;20656;-70
2023/06/16 05:49:35;;;;;;;14.70;9.20;;;16.30;99.90;;;15.80;69.03;101129.06;5055642;28;20362;-70
2023/06/16 05:52:09;;;;;;;14.60;8.73;;;16.30;99.90;;;15.82;68.84;101129.75;5055023;28;20265;-70
2023/06/16 05:54:41;;;;;;;13.60;8.77;;;16.30;99.90;;;15.77;69.26;101130.28;5054476;28;20289;-70
2023/06/16 05:57:12;;;;;;;12.77;9.63;;;16.30;99.90;;;15.77;69.09;101133.00;5055286;28;20290;-69
2023/06/16 05:59:48;;;;;;;11.87;9.10;;;16.20;99.90;;;15.84;68.77;101116.91;5055219;28;20194;-69
2023/06/16 06:02:20;;;;;;;13.93;8.80;;;16.30;99.90;;;15.84;68.97;101116.91;5055077;28;20308;-69
2023/06/16 06:04:52;;;;;;;13.30;9.17;;;16.30;99.90;;;15.79;69.39;101124.72;5055203;28;20191;-69
2023/06/16 06:07:24;;;;;;;13.03;9.47;;;16.40;99.90;;;15.78;69.33;101123.03;5055088;28;20220;-69
2023/06/16 06:09:56;;;;;;;11.13;8.93;;;16.30;99.90;;;15.80;68.90;101123.69;5055090;28;20190;-70
2023/06/16 06:12:28;;;;;;;10.27;8.93;;;16.40;99.90;;;15.83;69.36;101126.00;5055196;28;20240;-70
2023/06/16 06:15:03;;;;;;;15.67;9.07;;;16.30;99.90;;;15.88;69.75;101129.84;5054672;28;20593;-69
2023/06/16 06:17:35;;;;;;;15.73;9.17;;;16.40;99.90;;;15.95;69.49;101130.78;5054598;28;20632;-69
2023/06/16 06:20:08;;;;;;;14.37;9.67;;;16.50;99.90;;;15.92;69.06;101125.75;5054958;28;20212;-70
2023/06/16 06:22:40;;;;;;;10.30;9.10;;;16.40;99.90;;;15.96;68.46;101128.94;5054773;28;20314;-70
2023/06/16 06:25:13;;;;;;;10.80;8.90;;;16.40;99.90;;;15.97;68.22;101122.47;5054516;28;20563;-69
2023/06/16 06:27:45;;;;;;;11.37;8.87;;;16.50;99.90;;;16.03;68.21;101124.44;5054698;28;20252;-69
2023/06/16 06:30:19;;;;;;;11.00;8.70;;;16.50;99.90;;;16.08;68.92;101119.31;5055005;28;20205;-69
2023/06/16 06:32:52;;;;;;;11.13;9.07;;;16.60;99.90;;;16.14;67.66;101121.28;5054574;28;20279;-70
2023/06/16 06:35:24;;;;;;;12.47;9.80;;;16.60;99.90;;;16.19;68.64;101130.50;5054586;28;20195;-70
2023/06/16 06:37:56;;;;;;;11.43;9.20;;;16.70;99.90;;;16.22;68.64;101126.59;5054581;28;20248;-70
2023/06/16 06:40:28;;;;;;;12.60;10.53;;;16.70;99.90;;;16.07;68.49;101123.03;5054272;28;20244;-70
2023/06/16 06:43:00;;;;;;;15.73;11.47;;;16.60;99.90;;;16.05;68.90;101122.41;5054055;28;20798;-70
2023/06/16 06:45:33;;;;;;;13.63;10.73;;;16.60;99.90;;;16.02;69.37;101117.38;5054874;28;20224;-70
2023/06/16 06:48:05;;;;;;;13.13;10.57;;;16.50;99.90;;;16.08;69.06;101113.91;5054257;28;20297;-70
2023/06/16 06:50:36;;;;;;;11.30;10.13;;;16.60;99.90;;;16.08;68.79;101108.53;5054012;28;20194;-69
2023/06/16 06:53:08;;;;;;;13.53;11.23;;;16.60;99.90;;;16.10;69.05;101106.44;5054210;28;20264;-69
2023/06/16 06:55:40;;;;;;;11.17;9.50;;;16.60;99.90;;;16.17;68.49;101107.38;5054192;28;20281;-69
2023/06/16 06:58:10;;;;;;;20.93;12.03;;;16.70;99.90;;;16.16;69.68;101111.13;5054159;28;20620;-69
2023/06/16 07:00:43;;;;;;;19.77;11.77;;;16.70;99.90;;;16.19;69.78;101105.34;5053983;28;20297;-69
2023/06/16 07:03:15;;;;;;;29.17;12.83;;;16.70;99.90;;;16.24;70.42;101108.31;5053893;28;20230;-69
2023/06/16 07:05:47;;;;;;;18.83;10.80;;;16.80;99.90;;;16.22;70.71;101104.97;5053584;28;20568;-69
2023/06/16 07:08:19;;;;;;;21.03;12.03;;;16.70;99.90;;;16.14;71.12;101105.06;5054156;28;20293;-69
2023/06/16 07:10:51;;;;;;;16.97;11.00;;;16.60;99.90;;;16.24;72.91;101108.31;5053757;28;20670;-70
2023/06/16 07:13:23;;;;;;;17.73;11.47;;;16.70;99.90;;;16.27;72.77;101107.94;5053731;28;20237;-69
2023/06/16 07:15:56;;;;;;;16.07;12.27;;;16.80;99.90;;;16.26;73.84;101111.69;5053847;28;20193;-69
2023/06/16 07:18:28;;;;;;;17.47;11.87;;;16.80;99.90;;;16.21;73.15;101108.69;5053887;28;20194;-69
2023/06/16 07:21:00;;;;;;;19.13;11.83;;;16.80;99.90;;;16.29;73.77;101111.31;5053775;28;20229;-69
2023/06/16 07:23:32;;;;;;;15.33;11.40;;;16.80;99.90;;;16.34;74.36;101113.41;5053297;28;20731;-70
2023/06/16 07:26:04;;;;;;;13.10;11.20;;;16.80;99.90;;;16.32;73.92;101112.78;5054696;28;20221;-69
2023/06/16 07:28:36;;;;;;;10.93;9.73;;;16.80;99.90;;;16.37;73.29;101113.06;5054015;28;20206;-69
2023/06/16 07:31:09;;;;;;;11.83;10.63;;;16.90;99.90;;;16.41;74.13;101117.88;5053869;28;20243;-69
2023/06/16 07:33:41;;;;;;;11.47;9.93;;;16.80;99.90;;;16.41;72.41;101107.06;5053591;28;20226;-70
2023/06/16 07:36:13;;;;;;;11.53;10.53;;;17.00;99.90;;;16.46;74.39;101115.47;5053309;28;20195;-70
2023/06/16 07:38:45;;;;;;;11.13;9.97;;;16.90;99.90;;;16.38;73.52;101109.31;5053284;28;20670;-70
2023/06/16 07:41:17;;;;;;;10.97;9.87;;;17.00;99.90;;;16.37;73.74;101110.38;5053252;28;20245;-70
2023/06/16 07:43:49;;;;;;;12.70;11.03;;;16.80;99.90;;;16.40;75.33;101109.97;5053298;28;20275;-70
2023/06/16 07:46:23;;;;;;;11.33;9.90;;;16.90;99.90;;;16.28;71.73;101109.63;5053083;28;20641;-70
2023/06/16 07:48:57;;;;;;;13.33;10.07;;;16.90;99.90;;;16.28;71.89;101103.38;5053257;28;20293;-70
2023/06/16 07:51:29;;;;;;;10.67;9.57;;;16.80;99.90;;;16.38;72.98;101109.31;5053009;28;20739;-69
2023/06/16 07:54:02;;;;;;;12.10;9.77;;;17.00;99.90;;;16.45;72.99;101099.44;5053136;28;20316;-69
2023/06/16 07:56:33;;;;;;;13.90;9.77;;;17.00;99.90;;;16.51;72.60;101099.50;5053316;28;20286;-69
2023/06/16 07:59:06;;;;;;;12.60;9.30;;;17.00;99.90;;;16.62;72.83;101095.50;5053184;28;20269;-69
2023/06/16 08:01:42;;;;;;;11.00;9.90;;;17.20;99.90;;;16.73;72.33;101093.16;5053178;28;20190;-69
2023/06/16 08:04:14;;;;;;;13.23;9.80;;;17.30;99.90;;;16.84;70.93;101101.78;5053155;28;20194;-69
2023/06/16 08:06:46;;;;;;;13.50;9.53;;;17.40;99.90;;;16.85;70.05;101095.34;5052851;28;20659;-69
2023/06/16 08:09:18;;;;;;;11.50;10.17;;;17.40;99.90;;;16.91;70.06;101086.47;5053073;28;20305;-69
2023/06/16 08:11:50;;;;;;;12.43;8.47;;;17.40;99.90;;;16.95;68.56;101087.75;5053046;28;20190;-69
2023/06/16 08:14:22;;;;;;;14.03;10.07;;;17.50;99.90;;;16.98;69.67;101095.47;5053138;28;20190;-69
2023/06/16 08:16:56;;;;;;;9.60;8.70;;;17.50;99.90;;;17.01;69.02;101089.69;5053628;28;20222;-69
2023/06/16 08:19:28;;;;;;;12.50;9.10;;;17.50;99.90;;;17.06;68.62;101092.63;5057199;28;20190;-69
2023/06/16 08:21:59;;;;;;;14.40;8.30;;;17.60;99.90;;;17.11;68.78;101092.88;5057098;28;20284;-69
2023/06/16 08:24:31;;;;;;;13.50;8.30;;;17.60;99.90;;;17.17;66.94;101097.53;5057070;28;20248;-69
2023/06/16 08:27:04;;;;;;;9.37;8.30;;;17.70;99.90;;;17.24;66.60;101093.00;5056732;28;20197;-69
2023/06/16 08:29:35;;;;;;;9.77;8.23;;;17.80;99.90;;;17.43;66.08;101094.22;5056946;28;20243;-69
2023/06/16 08:32:10;;;;;;;9.03;7.57;;;18.10;99.90;;;17.53;64.52;101095.56;5057525;28;20261;-69
2023/06/16 08:34:42;;;;;;;8.53;7.73;;;18.10;99.90;;;17.58;62.86;101090.41;5056580;28;20237;-69
2023/06/16 08:37:14;;;;;;;11.53;7.47;;;18.20;99.90;;;17.71;63.90;101086.94;5056849;28;20278;-69
2023/06/16 08:40:07;;;;;;;10.37;7.00;;;18.30;99.90;;;17.80;62.00;101084.91;5056845;28;20263;-69
2023/06/16 08:42:43;;;;;;;7.27;6.57;;;18.30;99.90;;;17.86;62.47;101076.84;5056660;28;20265;-69
2023/06/16 08:45:18;;;;;;;7.70;6.63;;;18.40;99.90;;;17.88;62.17;101082.03;5056407;28;20190;-70
2023/06/16 08:47:55;;;;;;;7.00;6.30;;;18.40;99.90;;;17.93;62.56;101085.00;5056625;28;20210;-70
2023/06/16 08:50:26;;;;;;;7.27;6.53;;;18.40;99.90;;;18.04;62.42;101088.00;5056597;28;20199;-70
2023/06/16 08:53:02;;;;;;;11.20;6.60;;;18.60;99.90;;;18.19;61.86;101085.13;5056166;28;20777;-69
2023/06/16 08:55:40;;;;;;;9.67;7.00;;;18.70;99.90;;;18.25;62.09;101081.63;5056223;28;20558;-69
2023/06/16 08:58:16;;;;;;;8.83;5.67;;;18.80;99.90;;;18.37;61.46;101081.88;5056437;28;20277;-70
2023/06/16 09:00:50;;;;;;;8.33;6.47;;;18.90;99.90;;;18.39;62.07;101080.63;5056388;28;20224;-70
2023/06/16 09:03:25;;;;;;;8.70;6.17;;;19.00;99.90;;;18.41;62.96;101070.44;5056292;28;20327;-70
2023/06/16 09:05:59;;;;;;;8.53;6.23;;;19.00;99.90;;;18.52;61.70;101079.88;5056292;28;20190;-70
2023/06/16 09:08:31;;;;;;;8.50;6.03;;;19.10;99.90;;;18.63;61.21;101077.38;5056196;28;20242;-70
2023/06/16 09:11:09;;;;;;;7.93;5.87;;;19.20;99.90;;;18.74;61.19;101074.09;5056235;28;20244;-70
2023/06/16 09:13:45;;;;;;;8.60;6.00;;;19.30;99.90;;;18.91;58.92;101073.69;5056688;28;20230;-68
2023/06/16 09:16:21;;;;;;;6.67;5.47;;;19.40;99.90;;;19.07;58.17;101068.72;5056415;28;20273;-69
2023/06/16 09:18:55;;;;;;;6.67;5.23;;;19.60;99.90;;;19.11;58.46;101069.97;5055748;28;20662;-69
2023/06/16 09:21:27;;;;;;;7.77;5.27;;;19.60;99.90;;;19.25;57.23;101076.22;5055636;28;20637;-69
2023/06/16 09:24:09;;;;;;;6.87;4.70;;;19.80;99.90;;;19.31;56.93;101075.41;5055955;28;20256;-69
2023/06/16 09:26:43;;;;;;;7.17;5.37;;;19.80;99.90;;;19.41;56.08;101081.28;5055922;28;20222;-69
2023/06/16 09:29:26;;;;;;;5.73;5.10;;;19.90;99.10;;;19.48;55.54;101071.25;5054223;28;20684;-69
2023/06/16 09:32:09;;;;;;;6.97;5.33;;;20.00;98.80;;;19.54;54.28;101069.56;5055741;28;20225;-69
2023/06/16 09:34:43;;;;;;;6.50;5.17;;;20.10;97.80;;;19.60;55.17;101069.56;5055745;28;20230;-69
2023/06/16 09:37:21;;;;;;;7.73;6.17;;;20.10;98.40;;;19.70;54.25;101069.97;5055415;28;20241;-69
2023/06/16 09:39:53;;;;;;;9.37;6.47;;;20.20;97.90;;;19.90;53.66;101063.66;5055334;28;20611;-70
2023/06/16 09:42:30;;;;;;;10.43;6.50;;;20.40;97.50;;;19.94;53.78;101062.16;5055170;28;20234;-70
2023/06/16 09:45:02;;;;;;;10.07;6.47;;;20.40;97.50;;;20.10;54.97;101056.28;5055563;28;20276;-70
2023/06/16 09:47:34;;;;;;;9.53;6.30;;;20.60;98.00;;;20.08;54.05;101055.63;5055561;28;20214;-70
2023/06/16 09:50:12;;;;;;;9.60;6.70;;;20.60;97.40;;;20.26;54.33;101055.78;5055358;28;20210;-70
2023/06/16 09:52:44;;;;;;;9.33;7.50;;;20.70;97.70;;;20.28;53.37;101066.47;5055006;28;20556;-70
2023/06/16 09:55:17;;;;;;;8.20;6.73;;;20.80;97.10;;;20.30;54.60;101054.34;5055382;28;20288;-69
2023/06/16 09:57:50;;;;;;;8.33;6.80;;;20.80;97.90;;;20.48;53.95;101054.44;5054951;28;20225;-69
2023/06/16 10:00:25;;;;;;;10.90;7.27;;;21.00;97.50;;;20.52;54.84;101041.25;5055369;28;20186;-70
2023/06/16 10:02:57;;;;;;;10.27;7.20;;;21.00;97.50;;;20.64;53.29;101047.66;5055120;28;20279;-70
2023/06/16 10:05:34;;;;;;;8.10;7.10;;;21.10;97.20;;;20.75;53.97;101046.97;5055240;28;20324;-70
2023/06/16 10:08:11;;;;;;;10.93;7.37;;;21.20;97.30;;;20.76;52.30;101037.75;5054955;28;20631;-70
2023/06/16 10:10:46;;;;;;;9.17;6.43;;;21.20;96.50;;;20.82;50.96;101033.31;5055093;28;20220;-70
2023/06/16 10:13:20;;;;;;;7.30;6.50;;;21.30;95.40;;;20.83;51.30;101029.53;5054986;28;20283;-70
2023/06/16 10:15:56;;;;;;;7.60;6.80;;;21.30;95.40;;;21.02;50.17;101023.13;5054963;28;20277;-70
2023/06/16 10:18:29;;;;;;;8.50;7.67;;;21.50;95.00;;;21.19;49.59;101033.28;5054869;28;20718;-70
2023/06/16 10:21:04;;;;;;;8.33;7.47;;;21.60;94.50;;;21.25;49.71;101031.53;5054877;28;20241;-69
2023/06/16 10:23:36;;;;;;;8.37;7.50;;;21.80;94.60;;;21.39;49.41;101033.09;5054791;28;20773;-69
2023/06/16 10:26:09;;;;;;;9.03;7.70;;;21.90;94.60;;;21.40;49.90;101032.03;5055077;28;20194;-69
2023/06/16 10:28:42;;;;;;;7.50;6.83;;;21.90;94.70;;;21.45;50.85;101032.19;5054553;28;20306;-69
2023/06/16 10:31:16;;;;;;;8.90;8.00;;;21.90;95.00;;;21.46;50.69;101033.84;5054947;28;20610;-70
2023/06/16 10:33:57;;;;;;;10.77;8.67;;;21.90;95.00;;;21.40;52.26;101033.94;5054647;28;20309;-69
2023/06/16 10:36:36;;;;;;;10.23;8.97;;;21.80;95.60;;;21.39;50.55;101032.25;5054497;28;20650;-70